KPPF

Details ICAO KPPF
Name TRI CITY
Region United States
Timezone America/Chicago (UTC-5.0)
Plans Departing 1
Arriving 1
Stats Elevation 899 ft / 274 m (AMSL)
Location 37.331318° -95.508590°
Runways 2
Magnetic Variation 2.336° E
Sunrise 2018-05-23 11:08:52 UTC / 2018-05-23 06:08:52 Local
Sunset 2018-05-24 01:31:37 UTC / 2018-05-23 20:31:37 Local
Advertisement - Login to hide

Runways

ID Width Length Bearing (true) Bearing (mag) Surface Threshold Offset Overrun Length
04 100 ft / 30 m 4,007 ft / 1,221 m 44.51° 42.17° Concrete 0 ft / 0 m 0 ft / 0 m
17 100 ft / 30 m 5,700 ft / 1,737 m 179.64° 177.30° Asphalt 0 ft / 0 m 0 ft / 0 m
22 100 ft / 30 m 4,007 ft / 1,221 m 224.51° 222.17° Concrete 0 ft / 0 m 0 ft / 0 m
35 100 ft / 30 m 5,700 ft / 1,737 m 359.64° 357.30° Asphalt 0 ft / 0 m 0 ft / 0 m

Map

Weather


0- 5 10 15 20 25 30 35+ Temperature / ° C

Clouds and Precipitation
Forecast for 2018-05-24 00:00 UTC. Updated 4 hours ago

Ground ~20,000 ft ~40,000 ft Winds

METAR

KPPF 240305Z AUTO 00000KT 2 1/2SM BR CLR 20/20 A3007 RMK AO2 VIS 1V5 T02000200

TAF

Not found

Frequencies

Recorded 118.17 MHz ASOS
Unicom 123.00 MHz CTAF/UNICOM
Warning: Do not use this data for real-world aviation or navigation. No guarantee of current accuracy is given.